Kovel, Ukraine
Current Conditions -  °F | °C
As of 3:30 PM on Thursday 18 Dec 2014 (Local Time) from UKLR Reporting Station
Rain Showers Rain Showers  
Wind Chill: 28°   Ceiling: 10000
Heat Index: 36°   Visibility: 2.8mi
Dew Point: 34°   Wind: 11mph
Humidity: 93%   Direction: 230°SW
Pressure: 29.88"   Gusts: NA
Location:  51.22°N, 24.72°E
Report Text: UKLR 181230Z 23005MPS 4600 -SHRA SCT017CB SCT017 OVC100 02/01 Q1012 NOSIG
Loading
Personal Weather Stations






























Interactive Weather Map New forecast layout! Learn more

10-Day Weather Forecast

Advertisements
Track Severe Weather on mobile